Time;durP1;ratioP1;P1;durP2;ratioP2;P2;SDS_P1;SDS_P2;PMS_P1;PMS_P2;Temp;Humidity;BMP_temperature;BMP_pressure;BME280_temperature;BME280_humidity;BME280_pressure;Samples;Min_cycle;Max_cycle;Signal;HPM_P1;HPM_P2
2022/08/25 00:00:16;;;;;;;40.85;38.78;;;;;;;;;;5036740;28;20129;-62
2022/08/25 00:02:41;;;;;;;48.90;46.42;;;;;;;;;;5034481;28;20128;-61
2022/08/25 00:05:07;;;;;;;41.22;39.13;;;;;;;;;;5037044;28;20187;-61
2022/08/25 00:07:32;;;;;;;31.80;30.15;;;;;;;;;;5038644;28;20040;-61
2022/08/25 00:09:58;;;;;;;32.28;30.52;;;;;;;;;;5033918;28;20025;-61
2022/08/25 00:12:23;;;;;;;29.83;28.27;;;;;;;;;;5034679;28;20653;-61
2022/08/25 00:14:48;;;;;;;33.03;31.23;;;;;;;;;;5037463;28;20032;-61
2022/08/25 00:17:14;;;;;;;36.53;34.58;;;;;;;;;;5037077;28;20132;-61
2022/08/25 00:19:39;;;;;;;31.17;29.55;;;;;;;;;;5032955;28;20021;-60
2022/08/25 00:22:06;;;;;;;32.25;30.58;;;;;;;;;;5023331;28;20365;-60
2022/08/25 00:24:32;;;;;;;28.88;27.33;;;;;;;;;;5039591;28;20040;-60
2022/08/25 00:26:58;;;;;;;35.58;33.75;;;;;;;;;;5036261;28;20037;-60
2022/08/25 00:29:25;;;;;;;31.23;29.58;;;;;;;;;;5036493;28;20065;-61
2022/08/25 00:31:52;;;;;;;26.50;25.08;;;;;;;;;;5038946;28;20033;-61
2022/08/25 00:34:21;;;;;;;23.35;22.10;;;;;;;;;;5036527;28;20303;-60
2022/08/25 00:36:50;;;;;;;20.17;18.98;;;;;;;;;;5034146;28;20037;-60
2022/08/25 00:39:19;;;;;;;20.67;19.55;;;;;;;;;;5034604;28;20112;-59
2022/08/25 00:41:47;;;;;;;18.38;17.33;;;;;;;;;;5036123;28;20083;-59
2022/08/25 00:44:16;;;;;;;18.40;17.38;;;;;;;;;;5033976;28;20033;-60
2022/08/25 00:46:48;;;;;;;14.57;13.73;;;;;;;;;;5036982;28;20062;-60
2022/08/25 00:49:14;;;;;;;15.60;14.68;;;;;;;;;;5034490;28;20026;-59
2022/08/25 00:51:52;;;;;;;18.75;17.73;;;;;;;;;;5033118;28;20597;-59
2022/08/25 00:54:26;;;;;;;18.08;17.08;;;;;;;;;;5039214;28;20134;-60
2022/08/25 00:56:52;;;;;;;21.08;19.92;;;;;;;;;;5037938;28;20044;-60
2022/08/25 00:59:20;;;;;;;19.17;18.08;;;;;;;;;;5040740;28;20073;-60
2022/08/25 01:01:45;;;;;;;16.63;15.70;;;;;;;;;;5038717;28;20073;-61
2022/08/25 01:04:11;;;;;;;17.50;16.50;;;;;;;;;;5038095;28;20033;-59
2022/08/25 01:06:39;;;;;;;15.05;14.15;;;;;;;;;;5040028;28;20485;-60
2022/08/25 01:09:06;;;;;;;18.40;17.38;;;;;;;;;;5039682;28;20459;-60
2022/08/25 01:11:33;;;;;;;15.82;14.93;;;;;;;;;;5039303;28;20033;-60
2022/08/25 01:14:02;;;;;;;14.27;13.38;;;;;;;;;;5040040;28;20032;-61
2022/08/25 01:16:28;;;;;;;14.27;13.45;;;;;;;;;;5043432;28;20438;-60
2022/08/25 01:18:56;;;;;;;13.38;12.57;;;;;;;;;;5037770;28;20036;-60
2022/08/25 01:21:24;;;;;;;12.15;11.45;;;;;;;;;;5036722;28;20028;-60
2022/08/25 01:23:51;;;;;;;14.45;12.82;;;;;;;;;;5043753;28;20112;-61
2022/08/25 01:26:27;;;;;;;14.48;13.60;;;;;;;;;;5039624;28;20025;-60
2022/08/25 01:31:38;;;;;;;13.95;13.05;;;;;;;;;;5039699;28;20037;-61
2022/08/25 01:34:05;;;;;;;12.65;11.88;;;;;;;;;;5038465;28;20626;-60
2022/08/25 01:36:31;;;;;;;13.10;12.30;;;;;;;;;;5040153;28;20453;-60
2022/08/25 01:38:57;;;;;;;11.63;10.93;;;;;;;;;;5038026;28;20362;-60
2022/08/25 01:41:29;;;;;;;10.70;10.00;;;;;;;;;;5038265;28;20037;-61
2022/08/25 01:43:54;;;;;;;10.95;10.25;;;;;;;;;;5036997;28;20033;-60
2022/08/25 01:46:20;;;;;;;13.43;12.63;;;;;;;;;;5038951;28;20362;-60
2022/08/25 01:48:46;;;;;;;12.82;12.02;;;;;;;;;;5037024;28;20049;-60
2022/08/25 01:51:14;;;;;;;10.65;10.00;;;;;;;;;;5040181;28;20106;-60
2022/08/25 01:53:40;;;;;;;12.65;11.85;;;;;;;;;;5034053;28;20049;-60
2022/08/25 01:56:13;;;;;;;12.50;11.80;;;;;;;;;;5041462;28;20638;-61
2022/08/25 01:58:42;;;;;;;13.20;12.40;;;;;;;;;;5036832;28;20048;-61
2022/08/25 02:01:11;;;;;;;12.75;11.98;;;;;;;;;;5037731;28;20663;-60
2022/08/25 02:03:38;;;;;;;12.05;11.32;;;;;;;;;;5038791;28;20191;-60
2022/08/25 02:06:05;;;;;;;13.10;12.30;;;;;;;;;;5036325;28;20037;-60
2022/08/25 02:08:30;;;;;;;10.68;10.00;;;;;;;;;;5038267;28;20600;-60
2022/08/25 02:10:55;;;;;;;11.52;10.82;;;;;;;;;;5039983;28;20040;-60
2022/08/25 02:13:22;;;;;;;10.93;10.23;;;;;;;;;;5039220;28;20029;-60
2022/08/25 02:15:51;;;;;;;11.70;11.00;;;;;;;;;;5041200;28;20095;-60
2022/08/25 02:18:18;;;;;;;11.03;10.33;;;;;;;;;;5038031;28;20116;-61
2022/08/25 02:20:45;;;;;;;11.02;10.27;;;;;;;;;;5036711;28;20349;-60
2022/08/25 02:23:11;;;;;;;11.63;10.93;;;;;;;;;;5033358;28;20527;-60
2022/08/25 02:25:38;;;;;;;10.95;10.25;;;;;;;;;;5035310;28;20033;-61
2022/08/25 02:28:04;;;;;;;10.73;10.02;;;;;;;;;;5036627;28;20040;-60
2022/08/25 02:30:29;;;;;;;10.38;9.68;;;;;;;;;;5036911;28;20037;-60
2022/08/25 02:32:54;;;;;;;10.02;9.43;;;;;;;;;;5032813;28;20037;-61
2022/08/25 02:35:20;;;;;;;13.93;13.13;;;;;;;;;;5037395;28;20025;-61
2022/08/25 02:37:45;;;;;;;14.30;13.43;;;;;;;;;;5034806;28;20053;-60
2022/08/25 02:40:11;;;;;;;13.80;13.00;;;;;;;;;;5036029;28;20044;-61
2022/08/25 02:42:37;;;;;;;15.45;14.55;;;;;;;;;;5034271;28;20055;-60
2022/08/25 02:45:03;;;;;;;17.02;16.05;;;;;;;;;;5037405;28;20033;-60
2022/08/25 02:47:30;;;;;;;19.20;18.13;;;;;;;;;;4998827;28;1074894;-60
2022/08/25 02:49:56;;;;;;;18.73;17.73;;;;;;;;;;5041508;28;20036;-60
2022/08/25 02:52:21;;;;;;;21.27;20.05;;;;;;;;;;5037859;28;20049;-61
2022/08/25 02:54:47;;;;;;;22.95;21.55;;;;;;;;;;5039585;28;20030;-60
2022/08/25 02:57:13;;;;;;;20.98;19.75;;;;;;;;;;5037348;28;20029;-61
2022/08/25 02:59:38;;;;;;;20.35;19.08;;;;;;;;;;5037707;28;20021;-60
2022/08/25 03:02:04;;;;;;;21.17;20.02;;;;;;;;;;5034731;28;20034;-60
2022/08/25 03:04:30;;;;;;;22.35;20.98;;;;;;;;;;5039075;28;20037;-60
2022/08/25 03:06:56;;;;;;;20.90;19.70;;;;;;;;;;5036456;28;20040;-60
2022/08/25 03:09:22;;;;;;;18.65;17.65;;;;;;;;;;5038741;28;20029;-60
2022/08/25 03:11:47;;;;;;;17.90;16.80;;;;;;;;;;5036785;28;20038;-60
2022/08/25 03:14:14;;;;;;;20.83;19.58;;;;;;;;;;5034433;28;20687;-60
2022/08/25 03:16:39;;;;;;;18.33;17.33;;;;;;;;;;5035693;28;20048;-60
2022/08/25 03:19:05;;;;;;;20.17;18.67;;;;;;;;;;5035219;28;20041;-60
2022/08/25 03:21:31;;;;;;;17.55;16.55;;;;;;;;;;5036456;28;20039;-60
2022/08/25 03:23:57;;;;;;;14.82;13.93;;;;;;;;;;5037624;28;20058;-60
2022/08/25 03:29:07;;;;;;;15.13;14.25;;;;;;;;;;5036797;28;20033;-60
2022/08/25 03:31:33;;;;;;;13.68;12.88;;;;;;;;;;5035383;28;20033;-60
2022/08/25 03:33:59;;;;;;;12.70;11.90;;;;;;;;;;5036580;28;20477;-60
2022/08/25 03:36:24;;;;;;;13.15;12.35;;;;;;;;;;5033599;28;20120;-60
2022/08/25 03:38:51;;;;;;;13.77;12.98;;;;;;;;;;5034492;28;20037;-60
2022/08/25 03:41:27;;;;;;;15.55;14.65;;;;;;;;;;5033866;28;20029;-60
2022/08/25 03:43:53;;;;;;;16.77;15.77;;;;;;;;;;5033923;28;20028;-60
2022/08/25 03:46:21;;;;;;;14.43;13.52;;;;;;;;;;5037322;28;20033;-60
2022/08/25 03:48:47;;;;;;;18.48;17.45;;;;;;;;;;5034532;28;20045;-60
2022/08/25 03:51:25;;;;;;;18.25;17.23;;;;;;;;;;5035742;28;20043;-60
2022/08/25 03:53:50;;;;;;;19.15;18.08;;;;;;;;;;5037807;28;20033;-60
2022/08/25 03:56:16;;;;;;;17.50;16.50;;;;;;;;;;5034726;28;20044;-60
2022/08/25 03:58:42;;;;;;;14.77;13.90;;;;;;;;;;5039273;28;20105;-60
2022/08/25 04:01:08;;;;;;;13.20;12.40;;;;;;;;;;5035150;28;20119;-60
2022/08/25 04:03:33;;;;;;;12.60;11.88;;;;;;;;;;5032662;28;20041;-60
2022/08/25 04:06:04;;;;;;;17.65;16.65;;;;;;;;;;5033103;28;20039;-60
2022/08/25 04:08:29;;;;;;;17.10;16.10;;;;;;;;;;5032375;28;20227;-60
2022/08/25 04:10:55;;;;;;;17.73;16.73;;;;;;;;;;5034491;28;20124;-60
2022/08/25 04:13:21;;;;;;;19.35;18.25;;;;;;;;;;5033687;28;20037;-60
2022/08/25 04:15:47;;;;;;;20.38;18.80;;;;;;;;;;5032286;28;20036;-60
2022/08/25 04:18:12;;;;;;;17.50;16.55;;;;;;;;;;5032252;28;20029;-60
2022/08/25 04:20:41;;;;;;;20.20;19.10;;;;;;;;;;5032777;28;20029;-60
2022/08/25 04:23:08;;;;;;;23.45;22.15;;;;;;;;;;5033531;28;20136;-60
2022/08/25 04:25:33;;;;;;;17.73;16.70;;;;;;;;;;5032875;28;20038;-60
2022/08/25 04:27:58;;;;;;;14.18;13.38;;;;;;;;;;5031437;28;20098;-60
2022/08/25 04:30:24;;;;;;;18.27;17.20;;;;;;;;;;5032926;28;20108;-60
2022/08/25 04:32:49;;;;;;;22.08;20.88;;;;;;;;;;5034195;28;20447;-60
2022/08/25 04:35:15;;;;;;;24.00;22.60;;;;;;;;;;5034129;28;20048;-59
2022/08/25 04:37:41;;;;;;;22.98;21.67;;;;;;;;;;5032833;28;20149;-60
2022/08/25 04:40:07;;;;;;;29.00;27.40;;;;;;;;;;5035269;28;20033;-60
2022/08/25 04:42:33;;;;;;;26.08;24.67;;;;;;;;;;5031992;28;20075;-60
2022/08/25 04:45:00;;;;;;;26.38;24.90;;;;;;;;;;5034338;28;20025;-60
2022/08/25 04:47:26;;;;;;;25.70;24.30;;;;;;;;;;5032056;28;20063;-60
2022/08/25 04:49:52;;;;;;;26.25;24.65;;;;;;;;;;5034339;28;20030;-60
2022/08/25 04:52:17;;;;;;;28.27;26.65;;;;;;;;;;5035110;28;20053;-60
2022/08/25 04:54:43;;;;;;;29.50;27.92;;;;;;;;;;5034374;28;20108;-60
2022/08/25 04:57:09;;;;;;;29.27;27.67;;;;;;;;;;5037200;28;20473;-60
2022/08/25 04:59:34;;;;;;;29.48;27.90;;;;;;;;;;5037764;28;20037;-60
2022/08/25 05:02:04;;;;;;;29.17;27.65;;;;;;;;;;5033088;28;20155;-60
2022/08/25 05:04:30;;;;;;;33.70;31.92;;;;;;;;;;5031758;28;20449;-60
2022/08/25 05:06:56;;;;;;;37.25;35.35;;;;;;;;;;5033542;28;20099;-60
2022/08/25 05:09:21;;;;;;;41.83;39.63;;;;;;;;;;5032964;28;20457;-60
2022/08/25 05:11:47;;;;;;;36.28;34.38;;;;;;;;;;5034568;28;20121;-60
2022/08/25 05:14:16;;;;;;;38.65;36.65;;;;;;;;;;5032947;28;20132;-60
2022/08/25 05:16:42;;;;;;;43.20;40.97;;;;;;;;;;5030895;28;20035;-60
2022/08/25 05:19:08;;;;;;;46.88;44.17;;;;;;;;;;5032232;28;20446;-60
2022/08/25 05:21:34;;;;;;;51.17;48.42;;;;;;;;;;5034847;28;20033;-60
2022/08/25 05:24:00;;;;;;;48.00;45.50;;;;;;;;;;5035882;28;20128;-60
2022/08/25 05:26:29;;;;;;;48.30;45.80;;;;;;;;;;5036394;28;20036;-60
2022/08/25 05:28:56;;;;;;;53.25;50.55;;;;;;;;;;5036738;28;20075;-60
2022/08/25 05:31:23;;;;;;;48.35;45.85;;;;;;;;;;5035896;28;20033;-60
2022/08/25 05:33:49;;;;;;;52.10;49.40;;;;;;;;;;5032924;28;20033;-60
2022/08/25 05:36:15;;;;;;;51.30;48.67;;;;;;;;;;5033932;28;20037;-60
2022/08/25 05:38:41;;;;;;;51.50;48.88;;;;;;;;;;5031967;28;20029;-60
2022/08/25 05:41:14;;;;;;;62.95;59.78;;;;;;;;;;5033875;28;20678;-60
2022/08/25 05:43:41;;;;;;;47.85;45.40;;;;;;;;;;5038975;28;20587;-60
2022/08/25 05:46:07;;;;;;;61.15;58.00;;;;;;;;;;5036718;28;20083;-60
2022/08/25 05:48:33;;;;;;;57.00;53.90;;;;;;;;;;5035950;28;20153;-60
2022/08/25 05:51:00;;;;;;;61.47;58.20;;;;;;;;;;5039074;28;20112;-60
2022/08/25 05:53:27;;;;;;;74.88;71.03;;;;;;;;;;5037859;28;20037;-60
2022/08/25 05:55:54;;;;;;;60.53;57.45;;;;;;;;;;5034424;28;20056;-60
2022/08/25 05:58:21;;;;;;;62.78;59.58;;;;;;;;;;5034608;28;20026;-60
2022/08/25 06:00:47;;;;;;;56.33;53.38;;;;;;;;;;5038030;28;20375;-60
2022/08/25 06:03:13;;;;;;;44.28;41.95;;;;;;;;;;5034076;28;20053;-60
2022/08/25 06:05:38;;;;;;;53.10;50.35;;;;;;;;;;5037027;28;20025;-60
2022/08/25 06:08:03;;;;;;;48.53;46.00;;;;;;;;;;5045811;28;20033;-60
2022/08/25 06:10:29;;;;;;;47.72;45.28;;;;;;;;;;5037700;28;20033;-60
2022/08/25 06:12:55;;;;;;;38.33;36.30;;;;;;;;;;5040205;28;20045;-60
2022/08/25 06:15:22;;;;;;;29.75;28.10;;;;;;;;;;5036346;28;20036;-60
2022/08/25 06:17:49;;;;;;;34.65;32.55;;;;;;;;;;5038092;28;20056;-60
2022/08/25 06:20:21;;;;;;;33.30;31.55;;;;;;;;;;5033496;28;20080;-60
2022/08/25 06:22:47;;;;;;;30.27;28.67;;;;;;;;;;5038371;28;20060;-60
2022/08/25 06:25:15;;;;;;;36.17;34.28;;;;;;;;;;5035133;28;20064;-60
2022/08/25 06:27:40;;;;;;;36.75;34.85;;;;;;;;;;5033376;28;20064;-59
2022/08/25 06:30:08;;;;;;;43.13;40.72;;;;;;;;;;5038734;28;20110;-60
2022/08/25 06:32:36;;;;;;;43.08;40.88;;;;;;;;;;5017759;28;20037;-60
2022/08/25 06:35:03;;;;;;;49.97;47.33;;;;;;;;;;5034135;28;20104;-60
2022/08/25 06:37:28;;;;;;;49.92;47.42;;;;;;;;;;5036174;28;20128;-60
2022/08/25 06:39:54;;;;;;;40.50;38.33;;;;;;;;;;5034837;28;20120;-60
2022/08/25 06:42:19;;;;;;;32.15;30.42;;;;;;;;;;5035624;28;20029;-60
2022/08/25 06:44:45;;;;;;;45.95;43.58;;;;;;;;;;5037905;28;20024;-60
2022/08/25 06:47:10;;;;;;;43.20;40.97;;;;;;;;;;5035314;28;20037;-60
2022/08/25 06:49:35;;;;;;;34.63;32.83;;;;;;;;;;5032175;28;20022;-60
2022/08/25 06:52:01;;;;;;;37.05;35.15;;;;;;;;;;5035122;28;20043;-61
2022/08/25 06:54:27;;;;;;;44.60;42.13;;;;;;;;;;5033769;28;20039;-60
2022/08/25 06:56:52;;;;;;;38.40;36.40;;;;;;;;;;5034092;28;20033;-60
2022/08/25 06:59:18;;;;;;;47.15;44.78;;;;;;;;;;5035632;28;20028;-60
2022/08/25 07:01:43;;;;;;;51.60;48.95;;;;;;;;;;5031885;28;20116;-60
2022/08/25 07:04:09;;;;;;;65.57;62.22;;;;;;;;;;5032243;28;20066;-60
2022/08/25 07:06:35;;;;;;;41.72;39.60;;;;;;;;;;5037509;28;20029;-60
2022/08/25 07:09:04;;;;;;;83.78;79.60;;;;;;;;;;5035617;28;20032;-60
2022/08/25 07:11:33;;;;;;;42.38;40.17;;;;;;;;;;5039217;28;20063;-60
2022/08/25 07:13:59;;;;;;;33.33;31.52;;;;;;;;;;5036150;28;20125;-60
2022/08/25 07:16:25;;;;;;;25.35;23.88;;;;;;;;;;5033722;28;20116;-59
2022/08/25 07:18:52;;;;;;;39.38;37.30;;;;;;;;;;5033157;28;20116;-60
2022/08/25 07:21:17;;;;;;;41.28;39.17;;;;;;;;;;5031789;28;20557;-59
2022/08/25 07:23:42;;;;;;;29.80;28.20;;;;;;;;;;5034058;28;20116;-60
2022/08/25 07:26:16;;;;;;;23.45;22.15;;;;;;;;;;5033935;28;20032;-61
2022/08/25 07:28:42;;;;;;;23.58;22.27;;;;;;;;;;5037205;28;20452;-58
2022/08/25 07:31:08;;;;;;;24.48;23.17;;;;;;;;;;5035914;28;20525;-58
2022/08/25 07:33:33;;;;;;;16.10;15.15;;;;;;;;;;5032203;28;20036;-59
2022/08/25 07:35:59;;;;;;;15.38;14.40;;;;;;;;;;5036185;28;20037;-58
2022/08/25 07:38:24;;;;;;;20.77;19.60;;;;;;;;;;5034529;28;20040;-58
2022/08/25 07:40:53;;;;;;;16.27;15.35;;;;;;;;;;5035140;28;20040;-58
2022/08/25 07:43:20;;;;;;;10.65;9.95;;;;;;;;;;5033949;28;20025;-59
2022/08/25 07:45:47;;;;;;;10.65;9.95;;;;;;;;;;5038649;28;20037;-59
2022/08/25 07:48:14;;;;;;;11.50;10.80;;;;;;;;;;5033273;28;20660;-58
2022/08/25 07:50:42;;;;;;;14.48;13.63;;;;;;;;;;5034022;28;20048;-59
2022/08/25 07:53:09;;;;;;;10.75;10.10;;;;;;;;;;5030954;28;20032;-59
2022/08/25 07:55:38;;;;;;;11.23;10.52;;;;;;;;;;5034072;28;20478;-59
2022/08/25 07:58:05;;;;;;;10.48;9.77;;;;;;;;;;5034025;28;20036;-58
2022/08/25 08:00:32;;;;;;;13.07;12.27;;;;;;;;;;5034502;28;20599;-59
2022/08/25 08:03:00;;;;;;;11.75;10.88;;;;;;;;;;5032069;28;20285;-58
2022/08/25 08:05:26;;;;;;;14.10;13.20;;;;;;;;;;5033349;28;20083;-58
2022/08/25 08:07:53;;;;;;;12.40;11.50;;;;;;;;;;5038766;28;20059;-59
2022/08/25 08:10:20;;;;;;;13.48;12.68;;;;;;;;;;5035252;28;20033;-59
2022/08/25 08:12:45;;;;;;;15.00;14.10;;;;;;;;;;5032200;28;20051;-58
2022/08/25 08:15:11;;;;;;;18.25;17.20;;;;;;;;;;5031667;28;20136;-58
2022/08/25 08:17:38;;;;;;;17.30;16.30;;;;;;;;;;5035246;28;20037;-59
2022/08/25 08:20:07;;;;;;;20.15;18.95;;;;;;;;;;5032409;28;20035;-58
2022/08/25 08:22:33;;;;;;;27.58;26.02;;;;;;;;;;5036890;28;20120;-58
2022/08/25 08:24:59;;;;;;;19.95;18.83;;;;;;;;;;5040082;28;20056;-59
2022/08/25 08:27:25;;;;;;;27.45;25.65;;;;;;;;;;5038481;28;20029;-58
2022/08/25 08:29:51;;;;;;;32.22;30.42;;;;;;;;;;5036090;28;20095;-58
2022/08/25 08:32:16;;;;;;;21.95;20.75;;;;;;;;;;5032744;28;20033;-58
2022/08/25 08:34:42;;;;;;;36.05;34.17;;;;;;;;;;5032714;28;20038;-58
2022/08/25 08:37:08;;;;;;;37.72;35.65;;;;;;;;;;5034152;28;20064;-58
2022/08/25 08:39:34;;;;;;;46.50;44.10;;;;;;;;;;5036092;28;20029;-59
2022/08/25 08:42:38;;;;;;;66.25;62.95;;;;;;;;;;5032136;28;20028;-58
2022/08/25 08:45:27;;;;;;;55.33;52.45;;;;;;;;;;4997832;28;20049;-59
2022/08/25 08:48:05;;;;;;;61.58;58.45;;;;;;;;;;5035367;28;20036;-59
2022/08/25 08:50:33;;;;;;;76.32;72.50;;;;;;;;;;5032186;28;20037;-59
2022/08/25 08:53:07;;;;;;;75.78;71.97;;;;;;;;;;5035648;28;20525;-58
2022/08/25 08:55:39;;;;;;;85.80;81.55;;;;;;;;;;5035150;28;20131;-59
2022/08/25 08:58:14;;;;;;;101.40;96.40;;;;;;;;;;5035501;28;20026;-59
2022/08/25 09:00:45;;;;;;;93.50;88.70;;;;;;;;;;5034337;28;20086;-59
2022/08/25 09:03:33;;;;;;;89.00;84.57;;;;;;;;;;5035414;28;20043;-59
2022/08/25 09:06:02;;;;;;;96.03;91.30;;;;;;;;;;5031736;28;20041;-58
2022/08/25 09:08:27;;;;;;;129.48;123.05;;;;;;;;;;5037243;28;20045;-58
2022/08/25 09:11:10;;;;;;;111.88;106.28;;;;;;;;;;5034564;28;20100;-58
2022/08/25 09:14:04;;;;;;;106.93;101.65;;;;;;;;;;5033147;28;20093;-58
2022/08/25 09:16:55;;;;;;;89.28;84.80;;;;;;;;;;5030743;28;20037;-58
2022/08/25 09:19:48;;;;;;;80.60;76.53;;;;;;;;;;5036989;28;20398;-59
2022/08/25 09:22:46;;;;;;;82.50;78.38;;;;;;;;;;5037254;28;20044;-58
2022/08/25 09:25:26;;;;;;;82.38;78.28;;;;;;;;;;5033286;28;20811;-59
2022/08/25 09:28:11;;;;;;;91.97;87.43;;;;;;;;;;5037508;28;20116;-59
2022/08/25 09:30:48;;;;;;;46.83;44.42;;;;;;;;;;5037566;28;20037;-59
2022/08/25 09:33:20;;;;;;;70.63;67.07;;;;;;;;;;5037906;28;20049;-59
2022/08/25 09:35:48;;;;;;;58.08;55.05;;;;;;;;;;5037545;28;20029;-59
2022/08/25 09:38:13;;;;;;;55.55;52.75;;;;;;;;;;5038093;28;20033;-59
2022/08/25 09:40:45;;;;;;;52.72;49.92;;;;;;;;;;5035527;28;20442;-59
2022/08/25 09:43:35;;;;;;;80.53;76.50;;;;;;;;;;5040653;28;20116;-59
2022/08/25 09:46:04;;;;;;;98.22;93.35;;;;;;;;;;5036981;28;20111;-59
2022/08/25 09:48:36;;;;;;;43.33;41.13;;;;;;;;;;5033580;28;20025;-60
2022/08/25 09:51:32;;;;;;;91.13;86.53;;;;;;;;;;5039277;28;20132;-59
2022/08/25 09:54:18;;;;;;;73.60;69.88;;;;;;;;;;5021270;28;20486;-60
2022/08/25 09:56:54;;;;;;;48.58;46.08;;;;;;;;;;5044769;28;20168;-60
2022/08/25 09:59:22;;;;;;;43.80;41.50;;;;;;;;;;5034878;28;20025;-61
2022/08/25 10:01:57;;;;;;;46.90;44.40;;;;;;;;;;5035910;28;20077;-61
2022/08/25 10:04:35;;;;;;;45.58;43.22;;;;;;;;;;5037831;28;20655;-60
2022/08/25 10:07:04;;;;;;;44.05;41.70;;;;;;;;;;5035851;28;20040;-59
2022/08/25 10:09:40;;;;;;;52.17;49.50;;;;;;;;;;5037544;28;20029;-60
2022/08/25 10:12:19;;;;;;;36.85;34.95;;;;;;;;;;5036781;28;20065;-60
2022/08/25 10:14:46;;;;;;;43.13;40.90;;;;;;;;;;5036295;28;20425;-60
2022/08/25 10:17:23;;;;;;;65.88;62.53;;;;;;;;;;5037652;28;20040;-60
2022/08/25 10:19:51;;;;;;;42.47;40.30;;;;;;;;;;5033020;28;20029;-59
2022/08/25 10:22:23;;;;;;;58.80;55.80;;;;;;;;;;5037345;28;20060;-60
2022/08/25 10:24:49;;;;;;;58.08;55.08;;;;;;;;;;5033425;28;20048;-60
2022/08/25 10:27:38;;;;;;;165.52;157.40;;;;;;;;;;5038722;28;20037;-60
2022/08/25 10:30:21;;;;;;;69.88;66.38;;;;;;;;;;5037070;28;20071;-60
2022/08/25 10:33:05;;;;;;;106.53;101.18;;;;;;;;;;5033949;28;20098;-60
2022/08/25 10:36:16;;;;;;;135.90;128.90;;;;;;;;;;5036623;28;20514;-59
2022/08/25 10:38:44;;;;;;;114.90;109.07;;;;;;;;;;4956890;28;20089;-59
2022/08/25 10:41:39;;;;;;;113.75;108.00;;;;;;;;;;5026424;28;20037;-60
2022/08/25 10:47:38;;;;;;;102.93;97.78;;;;;;;;;;5035114;28;20025;-60
2022/08/25 10:50:57;;;;;;;105.03;99.80;;;;;;;;;;5034246;28;20474;-59
2022/08/25 10:53:25;;;;;;;118.85;112.88;;;;;;;;;;4944800;28;20043;-59
2022/08/25 10:56:21;;;;;;;157.98;150.15;;;;;;;;;;5027510;28;20374;-60
2022/08/25 10:58:55;;;;;;;141.90;134.30;;;;;;;;;;5035302;28;20091;-60
2022/08/25 11:01:37;;;;;;;199.68;189.73;;;;;;;;;;5036710;28;20056;-62
2022/08/25 11:04:09;;;;;;;244.70;232.32;;;;;;;;;;5035552;28;20032;-60
2022/08/25 11:06:46;;;;;;;141.63;134.52;;;;;;;;;;5035260;28;20799;-60
2022/08/25 11:09:17;;;;;;;144.18;136.90;;;;;;;;;;5033830;28;20598;-64
2022/08/25 11:11:58;;;;;;;166.73;158.43;;;;;;;;;;5043234;28;20029;-63
2022/08/25 11:14:31;;;;;;;143.98;136.80;;;;;;;;;;5033482;28;20036;-60
2022/08/25 11:17:15;;;;;;;129.85;123.38;;;;;;;;;;5033233;28;20024;-61
2022/08/25 11:19:42;;;;;;;164.02;155.77;;;;;;;;;;5036254;28;20051;-61
2022/08/25 11:22:21;;;;;;;138.40;131.43;;;;;;;;;;5034259;28;20040;-61
2022/08/25 11:25:11;;;;;;;122.55;116.43;;;;;;;;;;5032851;28;20114;-61
2022/08/25 11:27:44;;;;;;;159.95;151.88;;;;;;;;;;5034175;28;20061;-61
2022/08/25 11:30:13;;;;;;;157.23;149.35;;;;;;;;;;5034477;28;20037;-61
2022/08/25 11:32:42;;;;;;;137.95;131.07;;;;;;;;;;5035561;28;20107;-61
2022/08/25 11:35:11;;;;;;;162.48;154.30;;;;;;;;;;5035380;28;20044;-61
2022/08/25 11:37:45;;;;;;;143.93;136.73;;;;;;;;;;5033710;28;20506;-62
2022/08/25 11:40:28;;;;;;;140.70;133.68;;;;;;;;;;5034774;28;20033;-61
2022/08/25 11:43:28;;;;;;;145.57;138.38;;;;;;;;;;5036514;28;20037;-61
2022/08/25 11:45:59;;;;;;;132.68;125.95;;;;;;;;;;5035142;28;20029;-61
2022/08/25 11:48:54;;;;;;;139.45;132.55;;;;;;;;;;5035032;28;20566;-61
2022/08/25 11:51:32;;;;;;;175.63;166.82;;;;;;;;;;5034576;28;20032;-60
2022/08/25 11:54:33;;;;;;;138.75;131.80;;;;;;;;;;5034456;28;20051;-61
2022/08/25 11:57:01;;;;;;;118.32;112.45;;;;;;;;;;5009439;28;20482;-61
2022/08/25 11:59:48;;;;;;;149.95;142.43;;;;;;;;;;5034324;28;20017;-62
2022/08/25 12:02:30;;;;;;;181.50;172.32;;;;;;;;;;5034925;28;20033;-62
2022/08/25 12:04:56;;;;;;;111.05;105.55;;;;;;;;;;5036016;28;20534;-62
2022/08/25 12:07:25;;;;;;;162.55;154.43;;;;;;;;;;5035618;28;20025;-60
2022/08/25 12:09:50;;;;;;;143.98;136.82;;;;;;;;;;5033759;28;20037;-61
2022/08/25 12:12:35;;;;;;;202.40;192.18;;;;;;;;;;5034471;28;20036;-60
2022/08/25 12:15:22;;;;;;;114.72;108.88;;;;;;;;;;5034193;28;20025;-60
2022/08/25 12:18:06;;;;;;;130.90;124.40;;;;;;;;;;5033994;28;20045;-59
2022/08/25 12:20:56;;;;;;;121.22;115.22;;;;;;;;;;5039130;28;20092;-59
2022/08/25 12:23:28;;;;;;;186.88;177.68;;;;;;;;;;5033945;28;20094;-59
2022/08/25 12:25:57;;;;;;;113.25;107.60;;;;;;;;;;5032105;28;20052;-58
2022/08/25 12:28:50;;;;;;;144.73;137.53;;;;;;;;;;5032166;28;20067;-59
2022/08/25 12:31:31;;;;;;;152.50;144.95;;;;;;;;;;5036920;28;20044;-58
2022/08/25 12:34:12;;;;;;;200.07;190.18;;;;;;;;;;5031193;28;20106;-58
2022/08/25 12:36:38;;;;;;;236.95;225.30;;;;;;;;;;5034266;28;20039;-59
2022/08/25 12:39:32;;;;;;;216.00;205.38;;;;;;;;;;5032580;28;20124;-59
2022/08/25 12:42:05;;;;;;;193.13;183.57;;;;;;;;;;5030640;28;20052;-59
2022/08/25 12:44:38;;;;;;;197.75;187.95;;;;;;;;;;5031569;28;20025;-58
2022/08/25 12:47:12;;;;;;;220.73;209.88;;;;;;;;;;5035024;28;20120;-58
2022/08/25 12:49:37;;;;;;;241.15;229.27;;;;;;;;;;5031800;28;20049;-59
2022/08/25 12:52:11;;;;;;;225.05;213.98;;;;;;;;;;5038258;28;20090;-59
2022/08/25 12:54:51;;;;;;;228.52;217.32;;;;;;;;;;5039310;28;20060;-59
2022/08/25 12:58:04;;;;;;;221.43;210.60;;;;;;;;;;5038915;28;20067;-59
2022/08/25 13:00:57;;;;;;;199.35;189.55;;;;;;;;;;5019338;28;20128;-59
2022/08/25 13:03:40;;;;;;;205.23;195.05;;;;;;;;;;5036154;28;20292;-58
2022/08/25 13:06:34;;;;;;;229.65;218.38;;;;;;;;;;5036818;28;20033;-59
2022/08/25 13:09:45;;;;;;;190.77;181.43;;;;;;;;;;5036841;28;20098;-59
2022/08/25 13:12:29;;;;;;;221.13;210.32;;;;;;;;;;5035187;28;20044;-58
2022/08/25 13:14:56;;;;;;;228.18;217.05;;;;;;;;;;5038942;28;20119;-58
2022/08/25 13:17:26;;;;;;;213.43;202.95;;;;;;;;;;5038489;28;20117;-59
2022/08/25 13:20:22;;;;;;;203.77;193.82;;;;;;;;;;5035183;28;20094;-59
2022/08/25 13:22:51;;;;;;;197.38;187.70;;;;;;;;;;5039984;28;20103;-59
2022/08/25 13:25:20;;;;;;;204.70;194.68;;;;;;;;;;5034814;28;20040;-59
2022/08/25 13:28:05;;;;;;;150.60;143.13;;;;;;;;;;5037728;28;20446;-59
2022/08/25 13:30:35;;;;;;;178.90;170.10;;;;;;;;;;5036399;28;20058;-59
2022/08/25 13:33:19;;;;;;;156.85;148.75;;;;;;;;;;5036700;28;20018;-58
2022/08/25 13:37:26;;;;;;;174.40;165.80;;;;;;;;;;5035836;28;20043;-59
2022/08/25 13:38:41;;;;;;;156.60;148.85;;;;;;;;;;5032494;28;20036;-60
2022/08/25 13:41:08;;;;;;;154.63;146.93;;;;;;;;;;5037391;28;20398;-60
2022/08/25 13:43:35;;;;;;;154.98;147.27;;;;;;;;;;5036938;28;20032;-60
2022/08/25 13:46:01;;;;;;;152.10;144.55;;;;;;;;;;5038522;28;20044;-60
2022/08/25 13:48:31;;;;;;;158.45;150.60;;;;;;;;;;5037333;28;20033;-59
2022/08/25 13:51:07;;;;;;;180.95;171.93;;;;;;;;;;5039219;28;20040;-59
2022/08/25 13:53:33;;;;;;;207.73;197.60;;;;;;;;;;5038969;28;20033;-60
2022/08/25 13:56:01;;;;;;;190.95;181.55;;;;;;;;;;5037876;28;20037;-59
2022/08/25 13:58:31;;;;;;;171.95;163.50;;;;;;;;;;5038514;28;20316;-59
2022/08/25 14:01:08;;;;;;;166.98;158.65;;;;;;;;;;5034838;28;20032;-60
2022/08/25 14:03:43;;;;;;;175.60;166.95;;;;;;;;;;5036008;28;20451;-59
2022/08/25 14:06:18;;;;;;;170.20;161.75;;;;;;;;;;5040685;28;20078;-59
2022/08/25 14:09:03;;;;;;;169.85;161.43;;;;;;;;;;5036779;28;20026;-59
2022/08/25 14:11:43;;;;;;;161.15;153.13;;;;;;;;;;5036288;28;20033;-59
2022/08/25 14:14:13;;;;;;;176.18;167.43;;;;;;;;;;5042628;28;20104;-60
2022/08/25 14:16:47;;;;;;;;;;;;;;;;;;5037389;28;20099;-59
2022/08/25 14:19:15;;;;;;;166.95;158.70;;;;;;;;;;5039753;28;20020;-63
2022/08/25 14:21:41;;;;;;;161.82;153.82;;;;;;;;;;5036612;28;20030;-63
2022/08/25 14:24:07;;;;;;;145.75;138.52;;;;;;;;;;5037563;28;20106;-62
2022/08/25 14:26:32;;;;;;;171.57;163.15;;;;;;;;;;5039099;28;20097;-63
2022/08/25 14:28:58;;;;;;;164.30;156.13;;;;;;;;;;5028232;28;20885;-60
2022/08/25 14:31:30;;;;;;;144.18;137.02;;;;;;;;;;5038567;28;20033;-59
2022/08/25 14:34:00;;;;;;;132.45;125.88;;;;;;;;;;5043752;28;20033;-59
2022/08/25 14:36:28;;;;;;;157.82;149.98;;;;;;;;;;5036430;28;20041;-60
2022/08/25 14:38:54;;;;;;;169.15;160.80;;;;;;;;;;5038632;28;20044;-59
2022/08/25 14:41:19;;;;;;;154.77;147.13;;;;;;;;;;5038398;28;20033;-60